Rigdon, Indiana
Current Conditions -  °F | °C
As of 1:55 PM on Friday 31 Oct 2014 (Local Time) from KMZZ Reporting Station
Light Rain Light Rain  
Wind Chill: 28°   Ceiling: 1100
Heat Index: 38°   Visibility: 5mi
Dew Point: 35°   Wind: 20mph
Humidity: 87%   Direction: 310°NW
Pressure: 29.95"   Gusts: 26mph
Location:  40.3067°N, 85.834°W
Report Text: KMZZ 311755Z AUTO 31017G23KT 5SM -RA BKN011 BKN018 OVC024 04/02 A2995 RMK AO2 P0001 6//// T00350016
Loading
Personal Weather Stations






























Interactive Weather Map
Tropical Storm Tracking
New forecast layout! Learn more

10-Day Weather Forecast

Advertisements
Track Severe Weather on mobile